Thursday, April 26, 2018, 5:29 AM EDT
Back to Local

KAQW, N Adams Harriman-and-west

Location: North Adams, MA, United States Lat: 42.7
Local Time: 5:29 AM EDT ( 9:29 GMT) Lon: -73.167
Time Zone: US/Eastern Elev: 652 ft

Show me the last for .
Show Decoded

2018-04-26 04:52 METAR KAQW 260852Z AUTO 27009KT 5SM -RA BR FEW010 BKN021 OVC029 12/11 A2959 RMK
                 AO2 RAE15B31 SLP021 P0002 60003 T01170106 55001 =
2018-04-26 04:32 METAR KAQW 260832Z AUTO 28005KT 9SM -RA SCT005 BKN022 OVC028 12/11 A2959 RMK AO2
                 RAE15B31 P0001 T01170111 =
2018-04-26 04:20 METAR KAQW 260820Z AUTO 25007KT 8SM BKN005 OVC024 12/11 A2958 RMK AO2 RAE15
                 P0001 T01170111 =
2018-04-26 04:06 METAR KAQW 260806Z AUTO 28005KT 4SM -RA BR BKN004 OVC010 11/11 A2958 RMK AO2
                 P0001 T01110111 =
2018-04-26 03:59 METAR KAQW 260759Z AUTO 00000KT 3SM -RA BR BKN005 OVC012 11/11 A2958 RMK AO2
                 P0001 T01110106 =
2018-04-26 03:52 METAR KAQW 260752Z AUTO 00000KT 2SM -RA BR SCT005 OVC012 11/11 A2958 RMK AO2
                 RAB08E28B41 SLP016 P0001 T01110106 =
2018-04-26 03:35 METAR KAQW 260735Z AUTO 00000KT 3SM BR FEW005 BKN010 OVC014 12/11 A2958 RMK AO2
                 RAB08E28 P0001 T01170106 =
2018-04-26 03:20 METAR KAQW 260720Z AUTO 09003KT 2SM -RA BR SCT005 OVC011 12/11 A2959 RMK AO2
                 RAB08 P0001 T01170106 =
2018-04-26 02:52 METAR KAQW 260652Z AUTO 00000KT 10SM OVC014 12/11 A2958 RMK AO2 SLP018 T01170106
                 =
2018-04-26 01:52 METAR KAQW 260552Z AUTO 00000KT 10SM OVC013 12/11 A2960 RMK AO2 SLP022 60000
                 T01220111 10139 20122 58013 =
2018-04-26 00:52 METAR KAQW 260452Z AUTO 00000KT 10SM BKN013 OVC018 13/12 A2962 RMK AO2 SLP031
                 T01280117 401500078 =
2018-04-26 00:48 METAR KAQW 260448Z AUTO 00000KT 10SM BKN013 OVC018 13/12 A2962 RMK AO2 =
2018-04-25 23:52 METAR KAQW 260352Z AUTO 11003KT 10SM OVC021 13/11 A2963 RMK AO2 SLP036 T01280111
                 =
2018-04-25 22:52 METAR KAQW 260252Z AUTO 10005KT 10SM OVC025 13/11 A2966 RMK AO2 RAB0159E09
                 SLP045 P0000 60000 T01330111 58008 =
2018-04-25 21:52 METAR KAQW 260152Z AUTO 07004KT 10SM BKN021 OVC028 14/12 A2968 RMK AO2 SLP051
                 T01390117 =
2018-04-25 20:52 METAR KAQW 260052Z AUTO 08006KT 10SM SCT020 OVC033 14/11 A2968 RMK AO2 RAB23E33
                 SLP053 P0000 T01390111 =
2018-04-25 19:52 METAR KAQW 252352Z AUTO 10009KT 10SM SCT018 BKN023 OVC030 14/12 A2969 RMK AO2
                 RAB15E37 SLP056 P0000 60004 T01390117 10150 20133 56021 =
2018-04-25 18:52 METAR KAQW 252252Z AUTO 10009KT 10SM OVC018 14/12 A2970 RMK AO2 RAE07B11E20
                 SLP061 P0000 T01390117 =
2018-04-25 18:08 METAR KAQW 252208Z AUTO 09005KT 10SM BKN020 OVC029 14/12 A2972 RMK AO2 RAE07
                 P0000 T01390122 =
2018-04-25 18:01 METAR KAQW 252201Z AUTO 09006KT 6SM -RA BR SCT022 BKN034 OVC050 14/12 A2972 RMK
                 AO2 P0000 T01390122 =
2018-04-25 17:52 METAR KAQW 252152Z AUTO 09011KT 2 1/2SM -RA BR FEW020 BKN031 OVC055 14/12 A2972
                 RMK AO2 SLP067 P0003 T01390122 =
2018-04-25 17:23 METAR KAQW 252123Z AUTO 09009KT 3SM -RA BR FEW021 BKN033 OVC048 14/12 A2973 RMK
                 AO2 P0001 T01390122 =
2018-04-25 17:18 METAR KAQW 252118Z AUTO 09010KT 2 1/2SM -RA BR FEW021 BKN028 OVC046 14/12 A2974
                 RMK AO2 P0001 T01390122 =
2018-04-25 17:13 METAR KAQW 252113Z AUTO 10009KT 3SM -RA BR FEW021 BKN032 OVC045 14/12 A2974 RMK
                 AO2 P0001 T01390117 =
2018-04-25 16:52 METAR KAQW 252052Z AUTO 10008KT 9SM -RA SCT023 BKN028 OVC038 14/12 A2975 RMK AO2
                 RAB1957 SLP077 P0001 60001 T01440117 56021 =
2018-04-25 16:36 METAR KAQW 252036Z AUTO 10010KT 9SM -RA BKN023 BKN037 OVC050 14/12 A2975 RMK AO2
                 RAB1957 P0001 T01440117 =
2018-04-25 16:15 METAR KAQW 252015Z AUTO 11012KT 10SM -RA SCT023 BKN038 OVC070 14/11 A2977 RMK
                 AO2 RAB1957 P0000 T01440111 =
2018-04-25 15:52 METAR KAQW 251952Z AUTO 11011KT 10SM FEW020 BKN025 OVC036 15/11 A2978 RMK AO2
                 SLP084 T01500106 =
2018-04-25 15:50 METAR KAQW 251950Z AUTO 11012G16KT 10SM SCT022 BKN028 OVC036 15/11 A2978 RMK AO2
                 =
2018-04-25 14:52 METAR KAQW 251852Z AUTO 10015KT 10SM FEW025 BKN045 OVC070 14/11 A2981 RMK AO2
                 RAE12 SLP097 P0000 T01440106 =
2018-04-25 13:52 METAR KAQW 251752Z AUTO 10013KT 10SM -RA FEW020 BKN039 OVC055 14/11 A2984 RMK
                 AO2 RAB37 SLP108 P0000 60005 T01440106 10144 20094 56036 =
2018-04-25 13:18 METAR KAQW 251718Z AUTO 09011G17KT 10SM SCT022 BKN042 OVC050 13/09 A2986 RMK AO2
                 T01330094 =
2018-04-25 12:52 METAR KAQW 251652Z AUTO 10014KT 10SM BKN020 BKN044 OVC055 13/09 A2987 RMK AO2
                 SLP118 T01280094 =
2018-04-25 12:42 METAR KAQW 251642Z AUTO 10012G19KT 10SM BKN020 BKN032 OVC048 13/09 A2988 RMK AO2
                 T01280094 =
2018-04-25 12:02 METAR KAQW 251602Z AUTO 10016G22KT 10SM SCT020 BKN036 OVC050 12/09 A2992 RMK AO2
                 T01170089 =
2018-04-25 11:52 METAR KAQW 251552Z AUTO 10015G21KT 10SM SCT020 BKN029 OVC055 12/09 A2992 RMK AO2
                 RAE04 SLP134 P0000 T01220089 =
2018-04-25 10:52 METAR KAQW 251452Z AUTO 09009G15KT 10SM -RA BKN021 BKN033 OVC060 11/08 A2995 RMK
                 AO2 RAE28B48 SLP145 P0000 60005 T01060083 56030 =
2018-04-25 10:22 METAR KAQW 251422Z AUTO 10011G17KT 10SM -RA SCT024 BKN043 OVC055 10/08 A2996 RMK
                 AO2 P0000 T01000078 =
2018-04-25 09:52 METAR KAQW 251352Z AUTO 11009KT 5SM -RA BR BKN021 BKN026 OVC049 10/08 A2998 RMK
                 AO2 SLP154 P0002 T01000078 =
2018-04-25 08:52 METAR KAQW 251252Z AUTO 09008KT 5SM -RA BR FEW019 BKN046 OVC070 09/07 A3001 RMK
                 AO2 SLP164 P0003 T00940072 =
2018-04-25 08:30 METAR KAQW 251230Z AUTO 09008KT 10SM -RA SCT025 BKN042 OVC060 09/07 A3002 RMK
                 AO2 P0001 T00890067 =
2018-04-25 07:52 METAR KAQW 251152Z AUTO 11009KT 4SM -RA BR BKN018 BKN038 OVC050 08/06 A3004 RMK
                 AO2 SLP175 P0005 60025 70025 T00830061 10111 20078 56013 =
2018-04-25 06:52 METAR KAQW 251052Z AUTO 09004KT 6SM -RA BR FEW020 BKN055 OVC070 08/06 A3007 RMK
                 AO2 SLP184 P0005 T00780061 =
2018-04-25 05:52 METAR KAQW 250952Z AUTO 08006KT 5SM RA BR FEW029 BKN049 OVC065 08/07 A3008 RMK
                 AO2 SLP188 P0007 T00780067 =

Support USWX by starting your Amazon purchase here.